sensor_id;sensor_type;location;lat;lon;timestamp;P1;durP1;ratioP1;P2;durP2;ratioP2
8948;SDS011;4509;51.522;9.910;2022-09-13T00:00:31;1.30;;;1.30;;
8948;SDS011;4509;51.522;9.910;2022-09-13T00:02:58;1.30;;;1.30;;
8948;SDS011;4509;51.522;9.910;2022-09-13T00:05:25;1.40;;;1.40;;
8948;SDS011;4509;51.522;9.910;2022-09-13T00:07:52;1.40;;;1.40;;
8948;SDS011;4509;51.522;9.910;2022-09-13T00:10:19;1.40;;;1.40;;
8948;SDS011;4509;51.522;9.910;2022-09-13T00:12:46;1.50;;;1.50;;
8948;SDS011;4509;51.522;9.910;2022-09-13T00:15:13;1.47;;;1.47;;
8948;SDS011;4509;51.522;9.910;2022-09-13T00:17:41;1.50;;;1.50;;
8948;SDS011;4509;51.522;9.910;2022-09-13T00:20:08;1.40;;;1.40;;
8948;SDS011;4509;51.522;9.910;2022-09-13T00:22:35;1.40;;;1.40;;
8948;SDS011;4509;51.522;9.910;2022-09-13T00:25:02;1.40;;;1.40;;
8948;SDS011;4509;51.522;9.910;2022-09-13T00:27:31;1.33;;;1.33;;
8948;SDS011;4509;51.522;9.910;2022-09-13T00:29:57;1.40;;;1.40;;
8948;SDS011;4509;51.522;9.910;2022-09-13T00:32:24;1.43;;;1.43;;
8948;SDS011;4509;51.522;9.910;2022-09-13T00:34:52;1.30;;;1.30;;
8948;SDS011;4509;51.522;9.910;2022-09-13T00:37:19;1.40;;;1.40;;
8948;SDS011;4509;51.522;9.910;2022-09-13T00:39:45;1.30;;;1.30;;
8948;SDS011;4509;51.522;9.910;2022-09-13T00:42:12;1.40;;;1.40;;
8948;SDS011;4509;51.522;9.910;2022-09-13T00:44:46;1.30;;;1.30;;
8948;SDS011;4509;51.522;9.910;2022-09-13T00:47:20;1.40;;;1.40;;
8948;SDS011;4509;51.522;9.910;2022-09-13T00:49:50;1.30;;;1.30;;
8948;SDS011;4509;51.522;9.910;2022-09-13T00:52:23;1.33;;;1.33;;
8948;SDS011;4509;51.522;9.910;2022-09-13T00:54:55;1.40;;;1.40;;
8948;SDS011;4509;51.522;9.910;2022-09-13T00:57:24;1.37;;;1.37;;
8948;SDS011;4509;51.522;9.910;2022-09-13T00:59:54;1.50;;;1.50;;
8948;SDS011;4509;51.522;9.910;2022-09-13T01:02:25;1.20;;;1.20;;
8948;SDS011;4509;51.522;9.910;2022-09-13T01:04:53;1.30;;;1.30;;
8948;SDS011;4509;51.522;9.910;2022-09-13T01:07:21;1.30;;;1.30;;
8948;SDS011;4509;51.522;9.910;2022-09-13T01:09:48;1.40;;;1.40;;
8948;SDS011;4509;51.522;9.910;2022-09-13T01:12:20;1.40;;;1.40;;
8948;SDS011;4509;51.522;9.910;2022-09-13T01:14:55;1.40;;;1.40;;
8948;SDS011;4509;51.522;9.910;2022-09-13T01:17:25;1.40;;;1.40;;
8948;SDS011;4509;51.522;9.910;2022-09-13T01:19:53;1.40;;;1.40;;
8948;SDS011;4509;51.522;9.910;2022-09-13T01:25:37;1.30;;;1.30;;
8948;SDS011;4509;51.522;9.910;2022-09-13T01:28:25;1.43;;;1.43;;
8948;SDS011;4509;51.522;9.910;2022-09-13T01:31:15;1.40;;;1.40;;
8948;SDS011;4509;51.522;9.910;2022-09-13T01:33:55;1.50;;;1.50;;
8948;SDS011;4509;51.522;9.910;2022-09-13T01:39:32;1.30;;;1.30;;
8948;SDS011;4509;51.522;9.910;2022-09-13T01:42:10;1.37;;;1.37;;
8948;SDS011;4509;51.522;9.910;2022-09-13T01:44:48;1.30;;;1.30;;
8948;SDS011;4509;51.522;9.910;2022-09-13T01:47:30;1.40;;;1.40;;
8948;SDS011;4509;51.522;9.910;2022-09-13T01:50:08;1.40;;;1.40;;
8948;SDS011;4509;51.522;9.910;2022-09-13T01:52:41;1.60;;;1.60;;
8948;SDS011;4509;51.522;9.910;2022-09-13T01:55:17;1.37;;;1.37;;
8948;SDS011;4509;51.522;9.910;2022-09-13T01:57:52;1.50;;;1.50;;
8948;SDS011;4509;51.522;9.910;2022-09-13T02:00:22;1.57;;;1.57;;
8948;SDS011;4509;51.522;9.910;2022-09-13T02:02:51;1.40;;;1.40;;
8948;SDS011;4509;51.522;9.910;2022-09-13T02:05:25;1.40;;;1.40;;
8948;SDS011;4509;51.522;9.910;2022-09-13T02:07:58;1.40;;;1.40;;
8948;SDS011;4509;51.522;9.910;2022-09-13T02:10:31;1.30;;;1.30;;
8948;SDS011;4509;51.522;9.910;2022-09-13T02:13:01;1.40;;;1.40;;
8948;SDS011;4509;51.522;9.910;2022-09-13T02:15:31;1.37;;;1.37;;
8948;SDS011;4509;51.522;9.910;2022-09-13T02:18:04;1.43;;;1.43;;
8948;SDS011;4509;51.522;9.910;2022-09-13T02:20:35;1.40;;;1.40;;
8948;SDS011;4509;51.522;9.910;2022-09-13T02:23:06;1.33;;;1.33;;
8948;SDS011;4509;51.522;9.910;2022-09-13T02:25:37;1.40;;;1.40;;
8948;SDS011;4509;51.522;9.910;2022-09-13T02:28:07;1.20;;;1.20;;
8948;SDS011;4509;51.522;9.910;2022-09-13T02:30:36;1.30;;;1.30;;
8948;SDS011;4509;51.522;9.910;2022-09-13T02:33:09;1.30;;;1.30;;
8948;SDS011;4509;51.522;9.910;2022-09-13T02:35:39;1.30;;;1.30;;
8948;SDS011;4509;51.522;9.910;2022-09-13T02:38:12;1.30;;;1.30;;
8948;SDS011;4509;51.522;9.910;2022-09-13T02:40:44;1.10;;;1.10;;
8948;SDS011;4509;51.522;9.910;2022-09-13T02:43:15;1.40;;;1.40;;
8948;SDS011;4509;51.522;9.910;2022-09-13T02:45:50;1.30;;;1.30;;
8948;SDS011;4509;51.522;9.910;2022-09-13T02:48:30;1.43;;;1.43;;
8948;SDS011;4509;51.522;9.910;2022-09-13T02:51:05;1.50;;;1.50;;
8948;SDS011;4509;51.522;9.910;2022-09-13T02:53:42;1.40;;;1.40;;
8948;SDS011;4509;51.522;9.910;2022-09-13T02:56:18;1.30;;;1.30;;
8948;SDS011;4509;51.522;9.910;2022-09-13T02:58:51;1.30;;;1.30;;
8948;SDS011;4509;51.522;9.910;2022-09-13T03:01:22;1.50;;;1.50;;
8948;SDS011;4509;51.522;9.910;2022-09-13T03:03:51;1.50;;;1.50;;
8948;SDS011;4509;51.522;9.910;2022-09-13T03:06:22;1.30;;;1.30;;
8948;SDS011;4509;51.522;9.910;2022-09-13T03:08:49;1.43;;;1.43;;
8948;SDS011;4509;51.522;9.910;2022-09-13T03:11:20;1.20;;;1.20;;
8948;SDS011;4509;51.522;9.910;2022-09-13T03:14:03;1.30;;;1.30;;
8948;SDS011;4509;51.522;9.910;2022-09-13T03:16:47;1.13;;;1.13;;
8948;SDS011;4509;51.522;9.910;2022-09-13T03:19:35;1.30;;;1.30;;
8948;SDS011;4509;51.522;9.910;2022-09-13T03:22:15;1.30;;;1.30;;
8948;SDS011;4509;51.522;9.910;2022-09-13T03:24:54;1.40;;;1.40;;
8948;SDS011;4509;51.522;9.910;2022-09-13T03:27:32;1.40;;;1.40;;
8948;SDS011;4509;51.522;9.910;2022-09-13T03:30:06;1.20;;;1.20;;
8948;SDS011;4509;51.522;9.910;2022-09-13T03:32:35;1.30;;;1.30;;
8948;SDS011;4509;51.522;9.910;2022-09-13T03:35:14;1.30;;;1.30;;
8948;SDS011;4509;51.522;9.910;2022-09-13T03:37:50;1.20;;;1.20;;
8948;SDS011;4509;51.522;9.910;2022-09-13T03:40:24;1.50;;;1.50;;
8948;SDS011;4509;51.522;9.910;2022-09-13T03:43:00;1.40;;;1.40;;
8948;SDS011;4509;51.522;9.910;2022-09-13T03:45:32;1.40;;;1.40;;
8948;SDS011;4509;51.522;9.910;2022-09-13T03:48:04;1.30;;;1.30;;
8948;SDS011;4509;51.522;9.910;2022-09-13T03:50:33;1.40;;;1.40;;
8948;SDS011;4509;51.522;9.910;2022-09-13T03:53:02;1.50;;;1.50;;
8948;SDS011;4509;51.522;9.910;2022-09-13T03:55:32;1.40;;;1.40;;
8948;SDS011;4509;51.522;9.910;2022-09-13T03:58:03;1.50;;;1.50;;
8948;SDS011;4509;51.522;9.910;2022-09-13T04:00:30;1.40;;;1.40;;
8948;SDS011;4509;51.522;9.910;2022-09-13T04:02:56;1.50;;;1.50;;
8948;SDS011;4509;51.522;9.910;2022-09-13T04:05:23;1.40;;;1.40;;
8948;SDS011;4509;51.522;9.910;2022-09-13T04:07:51;1.47;;;1.47;;
8948;SDS011;4509;51.522;9.910;2022-09-13T04:10:18;1.43;;;1.43;;
8948;SDS011;4509;51.522;9.910;2022-09-13T04:12:45;1.60;;;1.60;;
8948;SDS011;4509;51.522;9.910;2022-09-13T04:15:13;1.40;;;1.40;;
8948;SDS011;4509;51.522;9.910;2022-09-13T04:17:40;1.53;;;1.53;;
8948;SDS011;4509;51.522;9.910;2022-09-13T04:20:07;1.50;;;1.50;;
8948;SDS011;4509;51.522;9.910;2022-09-13T04:22:35;1.50;;;1.50;;
8948;SDS011;4509;51.522;9.910;2022-09-13T04:25:04;1.30;;;1.30;;
8948;SDS011;4509;51.522;9.910;2022-09-13T04:27:31;1.30;;;1.30;;
8948;SDS011;4509;51.522;9.910;2022-09-13T04:29:57;1.40;;;1.40;;
8948;SDS011;4509;51.522;9.910;2022-09-13T04:32:24;1.50;;;1.50;;
8948;SDS011;4509;51.522;9.910;2022-09-13T04:34:50;1.30;;;1.30;;
8948;SDS011;4509;51.522;9.910;2022-09-13T04:37:17;1.40;;;1.40;;
8948;SDS011;4509;51.522;9.910;2022-09-13T04:39:45;1.50;;;1.50;;
8948;SDS011;4509;51.522;9.910;2022-09-13T04:42:13;1.40;;;1.40;;
8948;SDS011;4509;51.522;9.910;2022-09-13T04:44:39;1.40;;;1.40;;
8948;SDS011;4509;51.522;9.910;2022-09-13T04:47:06;1.40;;;1.40;;
8948;SDS011;4509;51.522;9.910;2022-09-13T04:49:33;1.50;;;1.50;;
8948;SDS011;4509;51.522;9.910;2022-09-13T04:52:00;1.33;;;1.33;;
8948;SDS011;4509;51.522;9.910;2022-09-13T04:54:27;1.47;;;1.47;;
8948;SDS011;4509;51.522;9.910;2022-09-13T04:56:54;1.37;;;1.37;;
8948;SDS011;4509;51.522;9.910;2022-09-13T04:59:22;1.47;;;1.47;;
8948;SDS011;4509;51.522;9.910;2022-09-13T05:01:48;1.43;;;1.43;;
8948;SDS011;4509;51.522;9.910;2022-09-13T05:04:15;1.60;;;1.60;;
8948;SDS011;4509;51.522;9.910;2022-09-13T05:06:42;1.60;;;1.60;;
8948;SDS011;4509;51.522;9.910;2022-09-13T05:09:09;1.43;;;1.43;;
8948;SDS011;4509;51.522;9.910;2022-09-13T05:11:38;1.60;;;1.60;;
8948;SDS011;4509;51.522;9.910;2022-09-13T05:14:05;1.70;;;1.70;;
8948;SDS011;4509;51.522;9.910;2022-09-13T05:16:33;1.60;;;1.60;;
8948;SDS011;4509;51.522;9.910;2022-09-13T05:18:59;1.50;;;1.50;;
8948;SDS011;4509;51.522;9.910;2022-09-13T05:21:26;1.60;;;1.60;;
8948;SDS011;4509;51.522;9.910;2022-09-13T05:23:54;1.43;;;1.43;;
8948;SDS011;4509;51.522;9.910;2022-09-13T05:26:21;1.70;;;1.70;;
8948;SDS011;4509;51.522;9.910;2022-09-13T05:28:50;1.53;;;1.53;;
8948;SDS011;4509;51.522;9.910;2022-09-13T05:31:18;1.60;;;1.60;;
8948;SDS011;4509;51.522;9.910;2022-09-13T05:33:51;1.60;;;1.60;;
8948;SDS011;4509;51.522;9.910;2022-09-13T05:36:19;1.40;;;1.40;;
8948;SDS011;4509;51.522;9.910;2022-09-13T05:38:46;1.53;;;1.53;;
8948;SDS011;4509;51.522;9.910;2022-09-13T05:41:12;1.30;;;1.30;;
8948;SDS011;4509;51.522;9.910;2022-09-13T05:43:39;1.50;;;1.50;;
8948;SDS011;4509;51.522;9.910;2022-09-13T05:46:06;1.60;;;1.60;;
8948;SDS011;4509;51.522;9.910;2022-09-13T05:48:35;1.50;;;1.50;;
8948;SDS011;4509;51.522;9.910;2022-09-13T05:51:07;1.43;;;1.43;;
8948;SDS011;4509;51.522;9.910;2022-09-13T05:53:35;1.50;;;1.50;;
8948;SDS011;4509;51.522;9.910;2022-09-13T05:56:03;1.50;;;1.50;;
8948;SDS011;4509;51.522;9.910;2022-09-13T05:58:30;1.63;;;1.63;;
8948;SDS011;4509;51.522;9.910;2022-09-13T06:00:57;1.53;;;1.53;;
8948;SDS011;4509;51.522;9.910;2022-09-13T06:03:24;1.43;;;1.43;;
8948;SDS011;4509;51.522;9.910;2022-09-13T06:05:53;1.60;;;1.60;;
8948;SDS011;4509;51.522;9.910;2022-09-13T06:08:22;1.50;;;1.50;;
8948;SDS011;4509;51.522;9.910;2022-09-13T06:10:53;1.40;;;1.40;;
8948;SDS011;4509;51.522;9.910;2022-09-13T06:13:21;1.50;;;1.50;;
8948;SDS011;4509;51.522;9.910;2022-09-13T06:15:47;1.50;;;1.50;;
8948;SDS011;4509;51.522;9.910;2022-09-13T06:18:14;1.40;;;1.40;;
8948;SDS011;4509;51.522;9.910;2022-09-13T06:20:41;1.40;;;1.40;;
8948;SDS011;4509;51.522;9.910;2022-09-13T06:23:08;1.40;;;1.40;;
8948;SDS011;4509;51.522;9.910;2022-09-13T06:25:36;1.60;;;1.60;;
8948;SDS011;4509;51.522;9.910;2022-09-13T06:28:03;1.60;;;1.60;;
8948;SDS011;4509;51.522;9.910;2022-09-13T06:30:30;1.50;;;1.50;;
8948;SDS011;4509;51.522;9.910;2022-09-13T06:32:56;1.60;;;1.60;;
8948;SDS011;4509;51.522;9.910;2022-09-13T06:35:24;1.50;;;1.50;;
8948;SDS011;4509;51.522;9.910;2022-09-13T06:37:53;1.60;;;1.60;;
8948;SDS011;4509;51.522;9.910;2022-09-13T06:40:21;1.77;;;1.77;;
8948;SDS011;4509;51.522;9.910;2022-09-13T06:42:49;1.67;;;1.67;;
8948;SDS011;4509;51.522;9.910;2022-09-13T06:45:15;1.70;;;1.70;;
8948;SDS011;4509;51.522;9.910;2022-09-13T06:47:43;1.60;;;1.60;;
8948;SDS011;4509;51.522;9.910;2022-09-13T06:50:09;1.50;;;1.50;;
8948;SDS011;4509;51.522;9.910;2022-09-13T06:52:37;1.60;;;1.60;;
8948;SDS011;4509;51.522;9.910;2022-09-13T06:55:04;1.63;;;1.63;;
8948;SDS011;4509;51.522;9.910;2022-09-13T06:57:31;1.63;;;1.63;;
8948;SDS011;4509;51.522;9.910;2022-09-13T06:59:59;1.70;;;1.70;;
8948;SDS011;4509;51.522;9.910;2022-09-13T07:02:26;1.73;;;1.73;;
8948;SDS011;4509;51.522;9.910;2022-09-13T07:04:52;1.77;;;1.77;;
8948;SDS011;4509;51.522;9.910;2022-09-13T07:07:19;1.90;;;1.90;;
8948;SDS011;4509;51.522;9.910;2022-09-13T07:09:45;1.80;;;1.80;;
8948;SDS011;4509;51.522;9.910;2022-09-13T07:12:12;1.90;;;1.90;;
8948;SDS011;4509;51.522;9.910;2022-09-13T07:14:39;2.00;;;2.00;;
8948;SDS011;4509;51.522;9.910;2022-09-13T07:17:07;1.97;;;1.97;;
8948;SDS011;4509;51.522;9.910;2022-09-13T07:19:33;2.03;;;2.03;;
8948;SDS011;4509;51.522;9.910;2022-09-13T07:22:00;1.93;;;1.93;;
8948;SDS011;4509;51.522;9.910;2022-09-13T07:24:26;2.10;;;2.10;;
8948;SDS011;4509;51.522;9.910;2022-09-13T07:26:53;1.90;;;1.90;;
8948;SDS011;4509;51.522;9.910;2022-09-13T07:29:20;2.30;;;2.20;;
8948;SDS011;4509;51.522;9.910;2022-09-13T07:31:48;2.47;;;2.37;;
8948;SDS011;4509;51.522;9.910;2022-09-13T07:34:18;2.17;;;2.10;;
8948;SDS011;4509;51.522;9.910;2022-09-13T07:36:45;2.00;;;2.00;;
8948;SDS011;4509;51.522;9.910;2022-09-13T07:39:12;1.90;;;1.90;;
8948;SDS011;4509;51.522;9.910;2022-09-13T07:41:39;1.80;;;1.80;;
8948;SDS011;4509;51.522;9.910;2022-09-13T07:44:06;1.90;;;1.90;;
8948;SDS011;4509;51.522;9.910;2022-09-13T07:46:35;1.80;;;1.80;;
8948;SDS011;4509;51.522;9.910;2022-09-13T07:49:04;1.67;;;1.67;;
8948;SDS011;4509;51.522;9.910;2022-09-13T07:51:32;1.90;;;1.90;;
8948;SDS011;4509;51.522;9.910;2022-09-13T07:54:01;1.60;;;1.60;;
8948;SDS011;4509;51.522;9.910;2022-09-13T07:56:30;1.67;;;1.67;;
8948;SDS011;4509;51.522;9.910;2022-09-13T07:58:58;1.83;;;1.83;;
8948;SDS011;4509;51.522;9.910;2022-09-13T08:01:26;1.80;;;1.80;;
8948;SDS011;4509;51.522;9.910;2022-09-13T08:03:54;1.73;;;1.73;;
8948;SDS011;4509;51.522;9.910;2022-09-13T08:06:23;1.70;;;1.70;;
8948;SDS011;4509;51.522;9.910;2022-09-13T08:08:52;1.70;;;1.70;;
8948;SDS011;4509;51.522;9.910;2022-09-13T08:11:20;1.50;;;1.50;;
8948;SDS011;4509;51.522;9.910;2022-09-13T08:13:48;1.53;;;1.53;;
8948;SDS011;4509;51.522;9.910;2022-09-13T08:16:17;1.60;;;1.60;;
8948;SDS011;4509;51.522;9.910;2022-09-13T08:18:46;1.83;;;1.83;;
8948;SDS011;4509;51.522;9.910;2022-09-13T08:21:13;2.27;;;2.17;;
8948;SDS011;4509;51.522;9.910;2022-09-13T08:23:40;2.07;;;2.07;;
8948;SDS011;4509;51.522;9.910;2022-09-13T08:26:09;2.53;;;2.43;;
8948;SDS011;4509;51.522;9.910;2022-09-13T08:28:36;2.63;;;2.53;;
8948;SDS011;4509;51.522;9.910;2022-09-13T08:31:04;3.00;;;2.90;;
8948;SDS011;4509;51.522;9.910;2022-09-13T08:33:32;2.80;;;2.70;;
8948;SDS011;4509;51.522;9.910;2022-09-13T08:36:00;3.00;;;2.90;;
8948;SDS011;4509;51.522;9.910;2022-09-13T08:38:27;3.10;;;3.00;;
8948;SDS011;4509;51.522;9.910;2022-09-13T08:40:55;3.40;;;3.30;;
8948;SDS011;4509;51.522;9.910;2022-09-13T08:43:31;3.60;;;3.50;;
8948;SDS011;4509;51.522;9.910;2022-09-13T08:46:09;3.20;;;3.10;;
8948;SDS011;4509;51.522;9.910;2022-09-13T08:48:44;3.55;;;3.45;;
8948;SDS011;4509;51.522;9.910;2022-09-13T08:51:15;3.83;;;3.72;;
8948;SDS011;4509;51.522;9.910;2022-09-13T08:53:53;3.55;;;3.45;;
8948;SDS011;4509;51.522;9.910;2022-09-13T08:56:22;3.38;;;3.28;;
8948;SDS011;4509;51.522;9.910;2022-09-13T08:59:02;3.75;;;3.65;;
8948;SDS011;4509;51.522;9.910;2022-09-13T09:01:44;3.53;;;3.42;;
8948;SDS011;4509;51.522;9.910;2022-09-13T09:04:28;3.35;;;3.25;;
8948;SDS011;4509;51.522;9.910;2022-09-13T09:07:02;3.83;;;3.72;;
8948;SDS011;4509;51.522;9.910;2022-09-13T09:09:33;4.18;;;4.05;;
8948;SDS011;4509;51.522;9.910;2022-09-13T09:12:05;3.30;;;3.20;;
8948;SDS011;4509;51.522;9.910;2022-09-13T09:14:41;3.42;;;3.33;;
8948;SDS011;4509;51.522;9.910;2022-09-13T09:17:12;3.15;;;3.05;;
8948;SDS011;4509;51.522;9.910;2022-09-13T09:19:44;3.50;;;3.40;;
8948;SDS011;4509;51.522;9.910;2022-09-13T09:22:15;3.80;;;3.70;;
8948;SDS011;4509;51.522;9.910;2022-09-13T09:24:46;3.78;;;3.67;;
8948;SDS011;4509;51.522;9.910;2022-09-13T09:27:16;3.58;;;3.47;;
8948;SDS011;4509;51.522;9.910;2022-09-13T09:29:47;3.97;;;3.88;;
8948;SDS011;4509;51.522;9.910;2022-09-13T09:32:18;3.75;;;3.65;;
8948;SDS011;4509;51.522;9.910;2022-09-13T09:35:07;3.88;;;3.78;;
8948;SDS011;4509;51.522;9.910;2022-09-13T09:37:40;3.97;;;3.88;;
8948;SDS011;4509;51.522;9.910;2022-09-13T09:40:12;4.00;;;3.90;;
8948;SDS011;4509;51.522;9.910;2022-09-13T09:42:42;3.45;;;3.35;;
8948;SDS011;4509;51.522;9.910;2022-09-13T09:45:21;2.85;;;2.75;;
8948;SDS011;4509;51.522;9.910;2022-09-13T09:47:51;2.58;;;2.47;;
8948;SDS011;4509;51.522;9.910;2022-09-13T09:50:20;1.98;;;1.90;;
8948;SDS011;4509;51.522;9.910;2022-09-13T09:52:50;1.90;;;1.90;;
8948;SDS011;4509;51.522;9.910;2022-09-13T09:55:26;1.92;;;1.92;;
8948;SDS011;4509;51.522;9.910;2022-09-13T09:57:55;2.15;;;2.10;;
8948;SDS011;4509;51.522;9.910;2022-09-13T10:00:26;2.60;;;2.50;;
8948;SDS011;4509;51.522;9.910;2022-09-13T10:02:56;2.55;;;2.45;;
8948;SDS011;4509;51.522;9.910;2022-09-13T10:05:25;2.65;;;2.55;;
8948;SDS011;4509;51.522;9.910;2022-09-13T10:07:53;2.67;;;2.58;;
8948;SDS011;4509;51.522;9.910;2022-09-13T10:10:23;2.70;;;2.60;;
8948;SDS011;4509;51.522;9.910;2022-09-13T10:12:55;2.58;;;2.47;;
8948;SDS011;4509;51.522;9.910;2022-09-13T10:15:24;2.95;;;2.85;;
8948;SDS011;4509;51.522;9.910;2022-09-13T10:18:04;2.60;;;2.50;;
8948;SDS011;4509;51.522;9.910;2022-09-13T10:20:39;2.75;;;2.65;;
8948;SDS011;4509;51.522;9.910;2022-09-13T10:23:10;3.00;;;2.90;;
8948;SDS011;4509;51.522;9.910;2022-09-13T10:25:43;3.10;;;3.00;;
8948;SDS011;4509;51.522;9.910;2022-09-13T10:28:19;3.30;;;3.20;;
8948;SDS011;4509;51.522;9.910;2022-09-13T10:30:51;3.40;;;3.30;;
8948;SDS011;4509;51.522;9.910;2022-09-13T10:33:23;3.10;;;3.00;;
8948;SDS011;4509;51.522;9.910;2022-09-13T10:35:53;2.70;;;2.60;;
8948;SDS011;4509;51.522;9.910;2022-09-13T10:38:23;2.42;;;2.33;;
8948;SDS011;4509;51.522;9.910;2022-09-13T10:40:54;2.53;;;2.42;;
8948;SDS011;4509;51.522;9.910;2022-09-13T10:43:21;2.58;;;2.47;;
8948;SDS011;4509;51.522;9.910;2022-09-13T10:45:54;2.60;;;2.50;;
8948;SDS011;4509;51.522;9.910;2022-09-13T10:48:22;2.60;;;2.50;;
8948;SDS011;4509;51.522;9.910;2022-09-13T10:50:59;2.63;;;2.53;;
8948;SDS011;4509;51.522;9.910;2022-09-13T10:53:37;2.95;;;2.85;;
8948;SDS011;4509;51.522;9.910;2022-09-13T10:56:05;3.08;;;2.97;;
8948;SDS011;4509;51.522;9.910;2022-09-13T10:58:44;3.05;;;2.95;;
8948;SDS011;4509;51.522;9.910;2022-09-13T11:01:33;2.92;;;2.83;;
8948;SDS011;4509;51.522;9.910;2022-09-13T11:07:19;2.70;;;2.60;;
8948;SDS011;4509;51.522;9.910;2022-09-13T11:09:56;2.90;;;2.80;;
8948;SDS011;4509;51.522;9.910;2022-09-13T11:12:33;3.40;;;3.30;;
8948;SDS011;4509;51.522;9.910;2022-09-13T11:15:09;2.72;;;2.63;;
8948;SDS011;4509;51.522;9.910;2022-09-13T11:17:54;2.63;;;2.53;;
8948;SDS011;4509;51.522;9.910;2022-09-13T11:20:36;2.90;;;2.80;;
8948;SDS011;4509;51.522;9.910;2022-09-13T11:23:13;2.75;;;2.65;;
8948;SDS011;4509;51.522;9.910;2022-09-13T11:25:55;2.50;;;2.40;;
8948;SDS011;4509;51.522;9.910;2022-09-13T11:28:35;2.55;;;2.45;;
8948;SDS011;4509;51.522;9.910;2022-09-13T11:31:25;2.65;;;2.55;;
8948;SDS011;4509;51.522;9.910;2022-09-13T11:34:06;2.90;;;2.80;;
8948;SDS011;4509;51.522;9.910;2022-09-13T11:36:53;2.67;;;2.58;;
8948;SDS011;4509;51.522;9.910;2022-09-13T11:39:30;3.10;;;3.00;;
8948;SDS011;4509;51.522;9.910;2022-09-13T11:42:04;2.65;;;2.55;;
8948;SDS011;4509;51.522;9.910;2022-09-13T11:44:45;2.72;;;2.63;;
8948;SDS011;4509;51.522;9.910;2022-09-13T11:47:26;2.75;;;2.65;;
8948;SDS011;4509;51.522;9.910;2022-09-13T11:50:12;2.63;;;2.53;;
8948;SDS011;4509;51.522;9.910;2022-09-13T11:52:52;2.97;;;2.88;;
8948;SDS011;4509;51.522;9.910;2022-09-13T11:55:32;2.90;;;2.80;;
8948;SDS011;4509;51.522;9.910;2022-09-13T11:58:03;2.60;;;2.50;;
8948;SDS011;4509;51.522;9.910;2022-09-13T12:00:37;2.45;;;2.35;;
8948;SDS011;4509;51.522;9.910;2022-09-13T12:03:10;2.42;;;2.33;;
8948;SDS011;4509;51.522;9.910;2022-09-13T12:05:44;2.58;;;2.47;;
8948;SDS011;4509;51.522;9.910;2022-09-13T12:08:15;2.40;;;2.30;;
8948;SDS011;4509;51.522;9.910;2022-09-13T12:10:45;2.60;;;2.50;;
8948;SDS011;4509;51.522;9.910;2022-09-13T12:13:16;2.30;;;2.20;;
8948;SDS011;4509;51.522;9.910;2022-09-13T12:15:45;2.30;;;2.20;;
8948;SDS011;4509;51.522;9.910;2022-09-13T12:18:16;2.08;;;2.05;;
8948;SDS011;4509;51.522;9.910;2022-09-13T12:20:49;2.28;;;2.17;;
8948;SDS011;4509;51.522;9.910;2022-09-13T12:23:19;2.17;;;2.08;;
8948;SDS011;4509;51.522;9.910;2022-09-13T12:25:54;2.05;;;2.05;;
8948;SDS011;4509;51.522;9.910;2022-09-13T12:28:26;2.05;;;2.05;;
8948;SDS011;4509;51.522;9.910;2022-09-13T12:30:56;2.35;;;2.25;;
8948;SDS011;4509;51.522;9.910;2022-09-13T12:33:26;2.42;;;2.33;;
8948;SDS011;4509;51.522;9.910;2022-09-13T12:35:59;2.15;;;2.08;;
8948;SDS011;4509;51.522;9.910;2022-09-13T12:41:49;2.30;;;2.20;;
8948;SDS011;4509;51.522;9.910;2022-09-13T12:44:32;2.30;;;2.20;;
8948;SDS011;4509;51.522;9.910;2022-09-13T12:47:30;2.50;;;2.40;;
8948;SDS011;4509;51.522;9.910;2022-09-13T12:50:20;2.60;;;2.50;;
8948;SDS011;4509;51.522;9.910;2022-09-13T12:53:06;2.70;;;2.60;;
8948;SDS011;4509;51.522;9.910;2022-09-13T12:55:59;2.70;;;2.60;;
8948;SDS011;4509;51.522;9.910;2022-09-13T12:58:31;2.60;;;2.50;;
8948;SDS011;4509;51.522;9.910;2022-09-13T13:01:12;2.40;;;2.30;;
8948;SDS011;4509;51.522;9.910;2022-09-13T13:03:44;2.40;;;2.30;;
8948;SDS011;4509;51.522;9.910;2022-09-13T13:06:24;2.17;;;2.08;;
8948;SDS011;4509;51.522;9.910;2022-09-13T13:08:56;2.17;;;2.10;;
8948;SDS011;4509;51.522;9.910;2022-09-13T13:11:25;2.38;;;2.28;;
8948;SDS011;4509;51.522;9.910;2022-09-13T13:13:56;2.78;;;2.67;;
8948;SDS011;4509;51.522;9.910;2022-09-13T13:16:26;2.92;;;2.83;;
8948;SDS011;4509;51.522;9.910;2022-09-13T13:18:54;3.00;;;2.90;;
8948;SDS011;4509;51.522;9.910;2022-09-13T13:21:24;3.08;;;2.97;;
8948;SDS011;4509;51.522;9.910;2022-09-13T13:33:16;2.78;;;2.67;;
8948;SDS011;4509;51.522;9.910;2022-09-13T13:35:44;2.97;;;2.88;;
8948;SDS011;4509;51.522;9.910;2022-09-13T13:38:33;2.63;;;2.53;;
8948;SDS011;4509;51.522;9.910;2022-09-13T13:50:22;2.30;;;2.20;;
8948;SDS011;4509;51.522;9.910;2022-09-13T13:52:50;2.15;;;2.05;;
8948;SDS011;4509;51.522;9.910;2022-09-13T13:55:29;2.53;;;2.42;;
8948;SDS011;4509;51.522;9.910;2022-09-13T13:58:07;2.40;;;2.30;;
8948;SDS011;4509;51.522;9.910;2022-09-13T14:00:45;2.80;;;2.70;;
8948;SDS011;4509;51.522;9.910;2022-09-13T14:03:17;2.42;;;2.33;;
8948;SDS011;4509;51.522;9.910;2022-09-13T14:05:54;2.58;;;2.47;;
8948;SDS011;4509;51.522;9.910;2022-09-13T14:08:35;2.60;;;2.50;;
8948;SDS011;4509;51.522;9.910;2022-09-13T14:11:13;3.08;;;2.97;;
8948;SDS011;4509;51.522;9.910;2022-09-13T14:13:53;2.53;;;2.42;;
8948;SDS011;4509;51.522;9.910;2022-09-13T14:16:35;2.78;;;2.67;;
8948;SDS011;4509;51.522;9.910;2022-09-13T14:19:17;2.95;;;2.85;;
8948;SDS011;4509;51.522;9.910;2022-09-13T14:24:44;2.80;;;2.70;;
8948;SDS011;4509;51.522;9.910;2022-09-13T14:27:13;2.60;;;2.50;;
8948;SDS011;4509;51.522;9.910;2022-09-13T14:29:46;2.90;;;2.80;;
8948;SDS011;4509;51.522;9.910;2022-09-13T14:32:15;2.83;;;2.72;;
8948;SDS011;4509;51.522;9.910;2022-09-13T14:34:52;2.88;;;2.78;;
8948;SDS011;4509;51.522;9.910;2022-09-13T14:37:24;2.78;;;2.67;;
8948;SDS011;4509;51.522;9.910;2022-09-13T14:39:54;2.45;;;2.35;;
8948;SDS011;4509;51.522;9.910;2022-09-13T14:42:23;2.80;;;2.70;;
8948;SDS011;4509;51.522;9.910;2022-09-13T14:44:50;2.90;;;2.80;;
8948;SDS011;4509;51.522;9.910;2022-09-13T14:47:17;2.63;;;2.53;;
8948;SDS011;4509;51.522;9.910;2022-09-13T14:49:52;2.70;;;2.60;;
8948;SDS011;4509;51.522;9.910;2022-09-13T14:52:27;2.70;;;2.60;;
8948;SDS011;4509;51.522;9.910;2022-09-13T14:54:58;2.35;;;2.25;;
8948;SDS011;4509;51.522;9.910;2022-09-13T14:57:29;2.40;;;2.30;;
8948;SDS011;4509;51.522;9.910;2022-09-13T14:59:59;2.63;;;2.53;;
8948;SDS011;4509;51.522;9.910;2022-09-13T15:02:28;2.55;;;2.45;;
8948;SDS011;4509;51.522;9.910;2022-09-13T15:04:58;3.97;;;3.88;;
8948;SDS011;4509;51.522;9.910;2022-09-13T15:07:29;4.47;;;4.28;;
8948;SDS011;4509;51.522;9.910;2022-09-13T15:09:57;4.45;;;4.25;;
8948;SDS011;4509;51.522;9.910;2022-09-13T15:12:32;4.88;;;4.68;;
8948;SDS011;4509;51.522;9.910;2022-09-13T15:15:18;4.55;;;4.35;;
8948;SDS011;4509;51.522;9.910;2022-09-13T15:17:55;4.25;;;4.10;;
8948;SDS011;4509;51.522;9.910;2022-09-13T15:20:23;4.47;;;4.28;;
8948;SDS011;4509;51.522;9.910;2022-09-13T15:22:53;2.95;;;2.85;;
8948;SDS011;4509;51.522;9.910;2022-09-13T15:25:21;2.22;;;2.17;;
8948;SDS011;4509;51.522;9.910;2022-09-13T15:27:50;2.20;;;2.10;;
8948;SDS011;4509;51.522;9.910;2022-09-13T15:30:19;2.42;;;2.33;;
8948;SDS011;4509;51.522;9.910;2022-09-13T15:35:44;3.72;;;3.60;;
8948;SDS011;4509;51.522;9.910;2022-09-13T15:38:18;3.22;;;3.13;;
8948;SDS011;4509;51.522;9.910;2022-09-13T15:40:57;2.72;;;2.63;;
8948;SDS011;4509;51.522;9.910;2022-09-13T15:43:27;2.67;;;2.58;;
8948;SDS011;4509;51.522;9.910;2022-09-13T15:45:55;3.63;;;3.53;;
8948;SDS011;4509;51.522;9.910;2022-09-13T15:48:24;3.20;;;3.10;;
8948;SDS011;4509;51.522;9.910;2022-09-13T15:51:06;3.10;;;3.00;;
8948;SDS011;4509;51.522;9.910;2022-09-13T15:53:36;2.70;;;2.60;;
8948;SDS011;4509;51.522;9.910;2022-09-13T15:56:04;2.38;;;2.28;;
8948;SDS011;4509;51.522;9.910;2022-09-13T15:58:32;2.50;;;2.40;;
8948;SDS011;4509;51.522;9.910;2022-09-13T16:00:59;3.17;;;3.08;;
8948;SDS011;4509;51.522;9.910;2022-09-13T16:03:26;3.15;;;3.05;;
8948;SDS011;4509;51.522;9.910;2022-09-13T16:05:53;3.20;;;3.10;;
8948;SDS011;4509;51.522;9.910;2022-09-13T16:08:20;3.47;;;3.38;;
8948;SDS011;4509;51.522;9.910;2022-09-13T16:10:48;3.35;;;3.25;;
8948;SDS011;4509;51.522;9.910;2022-09-13T16:13:14;3.58;;;3.47;;
8948;SDS011;4509;51.522;9.910;2022-09-13T16:15:41;3.10;;;3.00;;
8948;SDS011;4509;51.522;9.910;2022-09-13T16:18:08;3.05;;;2.95;;